Time;durP1;ratioP1;P1;durP2;ratioP2;P2;SDS_P1;SDS_P2;PMS_P1;PMS_P2;Temp;Humidity;BMP_temperature;BMP_pressure;BME280_temperature;BME280_humidity;BME280_pressure;Samples;Min_cycle;Max_cycle;Signal;HPM_P1;HPM_P2
2023/03/06 00:01:48;;;;;;;4.22;3.83;;;;;;;0.10;78.60;147352.56;5144181;27;20031;-65
2023/03/06 00:04:14;;;;;;;4.22;3.80;;;;;;;-0.01;78.22;147327.16;5162450;27;20042;-65
2023/03/06 00:06:40;;;;;;;5.00;3.85;;;;;;;-0.02;78.44;147324.59;5156979;27;20498;-64
2023/03/06 00:09:08;;;;;;;5.57;3.92;;;;;;;-0.13;78.22;147295.38;5151232;27;20019;-65
2023/03/06 00:11:33;;;;;;;4.50;3.58;;;;;;;-0.25;78.73;147267.41;5156915;27;20026;-65
2023/03/06 00:13:59;;;;;;;4.05;3.55;;;;;;;-0.15;78.39;147290.31;5146871;27;20023;-65
2023/03/06 00:16:24;;;;;;;3.97;3.45;;;;;;;-0.08;78.48;147309.38;5144130;27;20072;-65
2023/03/06 00:18:50;;;;;;;4.07;3.75;;;;;;;-0.08;78.25;147308.09;5157195;27;20027;-64
2023/03/06 00:21:16;;;;;;;3.95;3.53;;;;;;;-0.09;78.45;147305.56;5151404;27;20039;-64
2023/03/06 00:23:42;;;;;;;4.80;3.70;;;;;;;0.00;77.57;147328.47;5129827;28;20242;-65
2023/03/06 00:26:08;;;;;;;4.13;3.58;;;;;;;0.00;77.35;147328.47;5140690;27;20073;-64
2023/03/06 00:28:34;;;;;;;3.78;3.38;;;;;;;-0.12;77.60;147297.94;5129746;27;20060;-65
2023/03/06 00:31:01;;;;;;;3.75;3.17;;;;;;;-0.14;77.79;147292.81;5144006;27;20027;-66
2023/03/06 00:33:26;;;;;;;3.95;3.20;;;;;;;-0.06;76.38;147314.47;5143588;27;20027;-65
2023/03/06 00:35:52;;;;;;;4.95;3.22;;;;;;;-0.02;77.09;147323.34;5158489;27;20049;-65
2023/03/06 00:38:17;;;;;;;11.57;3.75;;;;;;;-0.12;76.86;147299.19;5153086;27;20027;-65
2023/03/06 00:40:43;;;;;;;4.75;3.42;;;;;;;-0.11;76.79;147301.75;5143625;27;20347;-65
2023/03/06 00:43:09;;;;;;;3.42;3.13;;;;;;;-0.20;76.84;147278.84;5143819;27;20034;-64
2023/03/06 00:45:34;;;;;;;5.95;3.42;;;;;;;-0.20;76.58;147278.84;5151623;27;20020;-64
2023/03/06 00:48:00;;;;;;;3.30;3.00;;;;;;;-0.25;76.59;147267.41;5143166;27;20023;-64
2023/03/06 00:50:26;;;;;;;4.10;3.00;;;;;;;-0.22;76.89;147273.78;5151906;27;20014;-65
2023/03/06 00:52:51;;;;;;;3.55;2.67;;;;;;;-0.32;75.85;147249.63;5144215;27;20295;-64
2023/03/06 00:55:17;;;;;;;4.13;2.85;;;;;;;-0.22;76.38;147275.03;5144606;27;20308;-64
2023/03/06 00:57:43;;;;;;;3.50;3.00;;;;;;;-0.23;76.37;147272.53;5150598;27;20086;-65
2023/03/06 01:00:11;;;;;;;3.60;2.67;;;;;;;-0.19;76.48;147281.41;5144566;27;20023;-65
2023/03/06 01:02:36;;;;;;;3.30;2.85;;;;;;;-0.26;75.82;147264.84;5155220;27;20035;-64
2023/03/06 01:05:04;;;;;;;4.13;2.90;;;;;;;-0.35;76.49;147242.00;5149818;27;20073;-64
2023/03/06 01:07:32;;;;;;;3.17;2.60;;;;;;;-0.31;76.44;147252.19;5127629;27;20027;-64
2023/03/06 01:09:58;;;;;;;3.03;2.50;;;;;;;-0.45;75.94;147217.84;5139630;27;20019;-64
2023/03/06 01:12:24;;;;;;;3.55;2.50;;;;;;;-0.28;75.83;147258.53;5146398;27;20197;-64
2023/03/06 01:14:50;;;;;;;3.58;2.80;;;;;;;-0.25;76.09;147267.41;5146672;27;20204;-63
2023/03/06 01:17:16;;;;;;;3.10;2.80;;;;;;;-0.14;75.87;147294.13;5129679;27;20062;-64
2023/03/06 01:19:41;;;;;;;2.75;2.50;;;;;;;-0.12;76.40;147297.94;5133149;27;20030;-65
2023/03/06 01:22:07;;;;;;;3.17;2.72;;;;;;;-0.27;74.90;147262.34;5153131;27;20072;-65
2023/03/06 01:24:33;;;;;;;2.63;2.42;;;;;;;-0.27;75.30;147262.34;5148488;27;20046;-65
2023/03/06 01:26:58;;;;;;;3.60;2.35;;;;;;;-0.37;75.39;147238.19;5145793;27;20023;-63
2023/03/06 01:29:25;;;;;;;3.22;2.80;;;;;;;-0.24;75.80;147268.72;5149085;27;20061;-64
2023/03/06 01:31:51;;;;;;;2.70;2.40;;;;;;;-0.22;74.96;147273.78;5152406;27;20091;-64
2023/03/06 01:34:16;;;;;;;3.33;2.55;;;;;;;-0.24;73.82;147268.72;5152828;27;20054;-65
2023/03/06 01:36:42;;;;;;;4.68;2.83;;;;;;;-0.14;75.27;147292.81;5147352;27;20047;-64
2023/03/06 01:39:08;;;;;;;3.58;2.78;;;;;;;-0.08;75.45;147308.09;5158104;27;20026;-63
2023/03/06 01:41:34;;;;;;;2.95;2.67;;;;;;;-0.09;76.04;147306.81;5149480;27;20014;-65
2023/03/06 01:44:00;;;;;;;3.08;2.58;;;;;;;-0.05;75.22;147316.97;5153187;27;20027;-64
2023/03/06 01:46:31;;;;;;;3.72;2.55;;;;;;;0.01;74.56;147329.72;5151681;27;20087;-64
2023/03/06 01:49:08;;;;;;;3.97;3.30;;;;;;;0.01;75.69;147330.97;5128014;27;20031;-64
2023/03/06 01:51:51;;;;;;;3.22;2.92;;;;;;;0.11;75.03;147355.13;5127713;27;20220;-64
2023/03/06 01:54:22;;;;;;;3.67;2.95;;;;;;;0.05;74.73;147341.16;5149787;27;20311;-64
2023/03/06 01:56:51;;;;;;;4.57;2.88;;;;;;;-0.05;74.70;147316.97;5157337;27;20038;-64
2023/03/06 01:59:18;;;;;;;4.70;2.85;;;;;;;0.00;75.12;147328.47;5149970;27;20023;-64
2023/03/06 02:01:45;;;;;;;3.03;2.72;;;;;;;0.03;74.99;147336.06;5150901;27;20022;-63
2023/03/06 02:04:11;;;;;;;3.92;3.08;;;;;;;0.01;74.98;147330.97;5153716;27;20041;-65
2023/03/06 02:06:38;;;;;;;4.13;2.70;;;;;;;-0.09;74.53;147306.81;5131133;27;20039;-63
2023/03/06 02:09:05;;;;;;;4.13;3.35;;;;;;;-0.07;74.01;147311.91;5159088;27;20023;-64
2023/03/06 02:11:31;;;;;;;2.72;2.47;;;;;;;-0.04;74.61;147319.53;5149582;27;20052;-65
2023/03/06 02:13:56;;;;;;;2.90;2.60;;;;;;;-0.12;75.10;147297.94;5151891;27;20030;-64
2023/03/06 02:16:26;;;;;;;4.13;2.72;;;;;;;-0.11;75.10;147300.50;5153476;27;20038;-64
2023/03/06 02:18:52;;;;;;;3.05;2.58;;;;;;;-0.04;73.84;147318.28;5148010;27;20027;-64
2023/03/06 02:21:36;;;;;;;2.85;2.55;;;;;;;-0.25;73.28;147267.41;5158244;27;20015;-65
2023/03/06 02:24:15;;;;;;;3.58;2.70;;;;;;;-0.09;74.81;147306.81;5150619;27;20088;-64
2023/03/06 02:26:42;;;;;;;3.85;2.83;;;;;;;-0.20;73.63;147278.84;5144567;27;20035;-64
2023/03/06 02:29:08;;;;;;;2.72;2.50;;;;;;;-0.24;72.92;147268.72;5150405;27;20026;-64
2023/03/06 02:31:34;;;;;;;3.58;2.63;;;;;;;-0.16;73.65;147287.75;5148006;27;20311;-64
2023/03/06 02:34:14;;;;;;;3.13;2.60;;;;;;;-0.10;73.78;147303.00;5156441;27;20188;-64
2023/03/06 02:36:53;;;;;;;3.20;2.30;;;;;;;-0.03;73.60;147322.09;5121217;27;20069;-65
2023/03/06 02:39:22;;;;;;;3.28;2.53;;;;;;;-0.13;73.12;147296.63;5155179;27;20121;-66
2023/03/06 02:41:48;;;;;;;3.58;2.42;;;;;;;-0.30;73.48;147254.72;5150677;27;20046;-65
2023/03/06 02:44:14;;;;;;;2.90;2.50;;;;;;;-0.19;74.70;147282.66;5144941;27;20030;-65
2023/03/06 02:46:39;;;;;;;4.90;2.40;;;;;;;-0.27;73.10;147262.34;5155500;27;20027;-63
2023/03/06 02:49:05;;;;;;;3.58;2.63;;;;;;;-0.16;73.98;147287.75;5162361;27;20045;-64
2023/03/06 02:51:30;;;;;;;2.60;2.40;;;;;;;-0.18;74.13;147285.19;5159671;27;20107;-64
2023/03/06 02:53:56;;;;;;;3.17;2.85;;;;;;;-0.16;73.58;147289.00;5147260;27;20030;-63
2023/03/06 02:56:22;;;;;;;3.28;2.90;;;;;;;-0.12;74.16;147297.94;5135508;27;20030;-64
2023/03/06 02:58:47;;;;;;;3.63;3.17;;;;;;;-0.14;74.38;147292.81;5150498;27;20027;-64
2023/03/06 03:01:13;;;;;;;4.50;3.63;;;;;;;-0.13;75.03;147296.63;5144759;27;20026;-64
2023/03/06 03:03:39;;;;;;;4.10;3.33;;;;;;;-0.22;74.51;147273.78;5159855;27;20023;-64
2023/03/06 03:06:05;;;;;;;3.70;3.13;;;;;;;-0.26;75.80;147263.59;5133329;27;20046;-65
2023/03/06 03:08:32;;;;;;;3.40;3.10;;;;;;;-0.23;75.61;147272.53;5155150;27;20038;-66
2023/03/06 03:10:59;;;;;;;5.53;3.83;;;;;;;-0.31;75.43;147252.19;5155360;27;20067;-64
2023/03/06 03:13:24;;;;;;;5.55;3.45;;;;;;;-0.29;76.17;147257.25;5146327;27;20239;-63
2023/03/06 03:16:01;;;;;;;4.00;3.60;;;;;;;-0.41;76.43;147226.78;5159495;27;20019;-65
2023/03/06 03:18:28;;;;;;;3.83;3.40;;;;;;;-0.33;75.95;147247.06;5151508;27;20086;-64
2023/03/06 03:20:53;;;;;;;4.57;3.70;;;;;;;-0.25;75.67;147267.41;5158445;27;20058;-64
2023/03/06 03:23:19;;;;;;;3.70;3.38;;;;;;;-0.51;76.21;147202.63;5147003;27;20031;-65
2023/03/06 03:25:45;;;;;;;4.50;3.58;;;;;;;-0.45;76.46;147217.84;5159041;27;20080;-64
2023/03/06 03:28:10;;;;;;;4.88;3.92;;;;;;;-0.38;77.42;147234.38;5144108;27;20196;-64
2023/03/06 03:30:38;;;;;;;3.85;3.55;;;;;;;-0.47;76.43;147211.47;5151697;27;20293;-64
2023/03/06 03:33:04;;;;;;;3.90;3.45;;;;;;;-0.34;76.32;147244.56;5158995;27;20042;-64
2023/03/06 03:35:29;;;;;;;6.00;4.05;;;;;;;-0.41;77.52;147226.78;5153472;27;20030;-64
2023/03/06 03:37:55;;;;;;;4.78;4.30;;;;;;;-0.47;77.48;147212.78;5143733;27;20023;-64
2023/03/06 03:40:21;;;;;;;5.10;4.60;;;;;;;-0.43;78.05;147221.66;5144535;27;20031;-65
2023/03/06 03:42:46;;;;;;;4.40;3.88;;;;;;;-0.36;77.30;147240.75;5152250;27;20019;-65
2023/03/06 03:45:12;;;;;;;4.53;4.05;;;;;;;-0.55;78.42;147192.44;5144499;27;20176;-64
2023/03/06 03:47:37;;;;;;;5.20;4.53;;;;;;;-0.57;79.12;147187.34;5143523;27;20035;-65
2023/03/06 03:50:03;;;;;;;4.60;4.03;;;;;;;-0.44;78.89;147219.09;5138097;27;20035;-65
2023/03/06 03:52:29;;;;;;;4.85;4.35;;;;;;;-0.44;79.74;147220.41;5124111;28;20065;-64
2023/03/06 03:54:54;;;;;;;7.78;4.28;;;;;;;-0.43;78.29;147221.66;5156265;27;20041;-64
2023/03/06 03:57:20;;;;;;;5.45;4.95;;;;;;;-0.50;78.94;147203.88;5146350;27;20051;-65
2023/03/06 03:59:46;;;;;;;7.18;5.53;;;;;;;-0.46;79.16;147214.03;5149822;27;20036;-64
2023/03/06 04:02:11;;;;;;;6.30;4.35;;;;;;;-0.47;78.99;147212.78;5124554;27;20086;-63
2023/03/06 04:04:37;;;;;;;6.93;4.70;;;;;;;-0.48;78.69;147208.97;5134785;27;20103;-64
2023/03/06 04:07:03;;;;;;;6.28;4.65;;;;;;;-0.42;80.39;147224.22;5151276;27;20019;-64
2023/03/06 04:09:29;;;;;;;5.10;4.60;;;;;;;-0.38;79.22;147234.38;5144859;27;20023;-64
2023/03/06 04:11:54;;;;;;;6.35;5.03;;;;;;;-0.32;80.57;147248.38;5152890;27;20038;-64
2023/03/06 04:14:20;;;;;;;4.80;4.30;;;;;;;-0.36;79.37;147239.44;5145185;27;20027;-65
2023/03/06 04:16:45;;;;;;;7.18;5.43;;;;;;;-0.43;79.39;147221.66;5128902;27;20030;-64
2023/03/06 04:19:11;;;;;;;5.88;5.28;;;;;;;-0.36;80.08;147239.44;5132143;28;20118;-63
2023/03/06 04:21:36;;;;;;;5.57;4.97;;;;;;;-0.47;80.99;147211.47;5144452;27;20031;-64
2023/03/06 04:24:02;;;;;;;7.18;5.25;;;;;;;-0.44;80.20;147220.41;5135944;28;20066;-65
2023/03/06 04:26:28;;;;;;;6.38;5.25;;;;;;;-0.44;79.66;147219.09;5125111;28;20322;-65
2023/03/06 04:28:54;;;;;;;5.38;4.82;;;;;;;-0.30;80.04;147253.44;5147752;27;20102;-66
2023/03/06 04:31:20;;;;;;;6.32;4.70;;;;;;;-0.30;80.22;147254.72;5149689;27;20024;-64
2023/03/06 04:33:46;;;;;;;5.97;5.30;;;;;;;-0.42;79.42;147224.22;5143389;27;20105;-63
2023/03/06 04:36:29;;;;;;;7.63;5.22;;;;;;;-0.35;80.03;147242.00;5154036;27;20015;-63
2023/03/06 04:38:55;;;;;;;7.90;4.45;;;;;;;-0.28;79.30;147259.78;5146136;27;20459;-64
2023/03/06 04:41:22;;;;;;;5.75;5.15;;;;;;;-0.44;79.42;147220.41;5145874;27;20392;-64
2023/03/06 04:43:47;;;;;;;7.30;5.32;;;;;;;-0.32;80.36;147249.63;5151717;27;20105;-64
2023/03/06 04:46:13;;;;;;;5.15;4.65;;;;;;;-0.40;79.72;147229.28;5147184;27;20019;-64
2023/03/06 04:48:38;;;;;;;5.50;5.00;;;;;;;-0.35;79.07;147243.25;5146550;27;20141;-65
2023/03/06 04:51:04;;;;;;;7.32;5.68;;;;;;;-0.37;79.36;147238.19;5150280;27;20095;-66
2023/03/06 04:53:31;;;;;;;8.68;5.75;;;;;;;-0.34;79.29;147244.56;5156683;27;20049;-65
2023/03/06 04:55:57;;;;;;;8.20;5.53;;;;;;;-0.25;79.90;147266.16;5151742;27;20031;-64
2023/03/06 04:58:23;;;;;;;6.35;5.65;;;;;;;-0.31;79.53;147250.88;5147059;27;20090;-64
2023/03/06 05:00:48;;;;;;;8.55;5.45;;;;;;;-0.16;79.33;147287.75;5159601;27;20262;-64
2023/03/06 05:03:14;;;;;;;7.50;5.50;;;;;;;-0.38;78.59;147235.63;5150922;27;20034;-63
2023/03/06 05:05:40;;;;;;;7.70;5.90;;;;;;;-0.45;79.15;147217.84;5157220;27;20042;-64
2023/03/06 05:08:06;;;;;;;6.32;5.45;;;;;;;-0.36;79.62;147239.44;5152132;27;20050;-65
2023/03/06 05:10:31;;;;;;;8.18;5.80;;;;;;;-0.36;80.29;147239.44;5148005;27;20054;-64
2023/03/06 05:12:57;;;;;;;7.72;5.47;;;;;;;-0.33;79.50;147247.06;5139541;27;20286;-64
2023/03/06 05:15:23;;;;;;;6.90;5.40;;;;;;;-0.31;79.21;147250.88;5150690;27;20157;-64
2023/03/06 05:17:48;;;;;;;7.50;5.78;;;;;;;-0.23;79.45;147272.53;5158375;27;20049;-65
2023/03/06 05:20:15;;;;;;;7.70;5.68;;;;;;;-0.31;79.05;147250.88;5133421;27;20038;-64
2023/03/06 05:22:42;;;;;;;6.75;5.65;;;;;;;-0.26;80.14;147263.59;5148619;27;20019;-64
2023/03/06 05:25:09;;;;;;;6.40;5.07;;;;;;;-0.27;79.78;147262.34;5156290;27;20047;-65
2023/03/06 05:27:35;;;;;;;7.28;5.95;;;;;;;-0.23;80.02;147272.53;5145470;27;20212;-64
2023/03/06 05:30:01;;;;;;;6.57;5.45;;;;;;;-0.09;79.67;147306.81;5146323;27;20041;-64
2023/03/06 05:32:28;;;;;;;9.32;6.00;;;;;;;-0.23;79.80;147272.53;5125649;27;20287;-65
2023/03/06 05:34:53;;;;;;;6.10;5.50;;;;;;;-0.31;80.37;147250.88;5131527;27;20043;-65
2023/03/06 05:37:19;;;;;;;7.15;5.55;;;;;;;-0.32;79.85;147249.63;5156382;27;20023;-65
2023/03/06 05:39:45;;;;;;;7.45;5.45;;;;;;;-0.28;80.03;147259.78;5151491;27;20031;-64
2023/03/06 05:42:10;;;;;;;7.72;5.07;;;;;;;-0.30;80.63;147254.72;5160476;27;20026;-65
2023/03/06 05:44:36;;;;;;;6.18;5.30;;;;;;;-0.30;79.83;147253.44;5144981;27;20035;-64
2023/03/06 05:47:03;;;;;;;7.53;5.93;;;;;;;-0.23;80.86;147271.22;5145716;27;20019;-65
2023/03/06 05:49:33;;;;;;;8.43;5.47;;;;;;;-0.31;79.68;147252.19;5157077;27;20054;-64
2023/03/06 05:52:00;;;;;;;6.93;5.72;;;;;;;-0.30;79.63;147253.44;5129864;27;20053;-64
2023/03/06 05:54:25;;;;;;;8.52;6.03;;;;;;;-0.32;79.96;147248.38;5155235;27;20018;-65
2023/03/06 05:56:51;;;;;;;9.50;6.10;;;;;;;-0.56;80.40;147191.13;5145658;27;20023;-65
2023/03/06 05:59:17;;;;;;;7.18;5.50;;;;;;;-0.37;79.34;147236.88;5145284;27;20319;-65
2023/03/06 06:01:43;;;;;;;7.15;5.40;;;;;;;-0.19;78.94;147282.66;5129181;27;20086;-65
2023/03/06 06:04:10;;;;;;;7.70;5.70;;;;;;;-0.25;79.42;147266.16;5150251;27;20035;-65
2023/03/06 06:06:36;;;;;;;9.60;5.20;;;;;;;-0.07;78.34;147310.63;5124772;27;20031;-64
2023/03/06 06:09:02;;;;;;;5.90;4.50;;;;;;;-0.26;76.90;147263.59;5134102;27;20023;-64
2023/03/06 06:11:28;;;;;;;7.03;3.85;;;;;;;-0.33;76.83;147245.81;5147658;27;20031;-65
2023/03/06 06:13:53;;;;;;;5.32;3.95;;;;;;;-0.40;76.63;147229.28;5138564;27;20042;-63
2023/03/06 06:16:19;;;;;;;7.43;3.97;;;;;;;-0.40;77.17;147230.56;5130781;27;20026;-65
2023/03/06 06:18:44;;;;;;;4.47;3.65;;;;;;;-0.70;76.67;147155.56;5153939;27;20052;-65
2023/03/06 06:21:13;;;;;;;5.68;3.67;;;;;;;-0.48;77.08;147208.97;5137214;27;20111;-64
2023/03/06 06:23:39;;;;;;;7.55;3.60;;;;;;;-0.30;77.64;147253.44;5151858;27;20384;-65
2023/03/06 06:26:07;;;;;;;5.72;4.30;;;;;;;-0.44;77.06;147219.09;5141237;27;20340;-65
2023/03/06 06:28:33;;;;;;;8.82;4.30;;;;;;;-0.26;77.34;147264.84;5144308;27;20300;-63
2023/03/06 06:30:59;;;;;;;6.65;4.55;;;;;;;-0.25;77.65;147266.16;5141107;27;20019;-65
2023/03/06 06:33:25;;;;;;;6.38;5.05;;;;;;;-0.40;78.01;147229.28;5142855;27;20038;-64
2023/03/06 06:35:51;;;;;;;11.95;6.38;;;;;;;-0.19;78.55;147281.41;5155683;27;20047;-64
2023/03/06 06:38:17;;;;;;;9.38;5.22;;;;;;;0.02;78.26;147333.53;5147800;27;20082;-64
2023/03/06 06:40:43;;;;;;;9.07;6.00;;;;;;;0.03;76.82;147336.06;5146932;27;20031;-65
2023/03/06 06:43:09;;;;;;;6.70;5.65;;;;;;;0.05;76.53;147341.16;5165864;27;20018;-65
2023/03/06 06:45:35;;;;;;;11.10;6.03;;;;;;;0.17;76.52;147371.69;5120681;27;20099;-64
2023/03/06 06:48:00;;;;;;;6.63;4.75;;;;;;;0.29;75.89;147399.66;5126026;27;20036;-65
2023/03/06 06:50:26;;;;;;;7.55;5.28;;;;;;;0.48;76.03;147447.94;5122394;27;20245;-66
2023/03/06 06:52:51;;;;;;;9.55;5.15;;;;;;;0.50;75.19;147451.81;5125968;27;20107;-65
2023/03/06 06:55:17;;;;;;;6.00;4.80;;;;;;;0.58;74.78;147470.88;5125393;27;20043;-66
2023/03/06 06:57:43;;;;;;;10.48;5.47;;;;;;;0.71;74.88;147502.66;5144481;27;20242;-64
2023/03/06 07:00:11;;;;;;;5.10;3.65;;;;;;;0.60;73.44;147475.94;5145384;27;20050;-65
2023/03/06 07:02:37;;;;;;;5.85;3.38;;;;;;;0.58;72.76;147470.88;5135599;27;20200;-66
2023/03/06 07:05:02;;;;;;;3.42;2.70;;;;;;;0.35;73.31;147414.91;5145101;27;20023;-66
2023/03/06 07:07:29;;;;;;;6.10;3.28;;;;;;;0.41;73.08;147430.16;5144089;27;20019;-64
2023/03/06 07:09:55;;;;;;;6.47;3.30;;;;;;;0.20;72.36;147376.75;5154497;27;20039;-65
2023/03/06 07:12:20;;;;;;;6.13;3.20;;;;;;;0.14;73.21;147364.06;5145357;27;20030;-64
2023/03/06 07:14:47;;;;;;;6.28;3.30;;;;;;;0.27;73.54;147395.84;5154218;27;20061;-64
2023/03/06 07:17:12;;;;;;;6.45;3.42;;;;;;;0.23;72.83;147384.38;5145906;27;20027;-64
2023/03/06 07:19:38;;;;;;;6.15;3.10;;;;;;;0.02;73.63;147332.28;5145126;27;20347;-64
2023/03/06 07:22:04;;;;;;;5.97;3.70;;;;;;;0.21;73.81;147380.56;5153882;27;20038;-64
2023/03/06 07:24:29;;;;;;;4.30;3.50;;;;;;;0.10;74.22;147352.56;5160887;27;20187;-65
2023/03/06 07:26:55;;;;;;;4.78;3.10;;;;;;;0.27;73.48;147394.53;5153771;27;20086;-65
2023/03/06 07:29:20;;;;;;;6.90;3.63;;;;;;;0.20;72.86;147378.03;5140647;27;20043;-64
2023/03/06 07:31:46;;;;;;;4.60;2.85;;;;;;;0.50;72.52;147453.06;5149990;27;20422;-64
2023/03/06 07:34:13;;;;;;;5.15;3.30;;;;;;;0.55;73.07;147464.50;5144210;27;20120;-64
2023/03/06 07:36:39;;;;;;;3.42;3.10;;;;;;;0.48;71.26;147447.94;5137922;27;20023;-64
2023/03/06 07:39:06;;;;;;;5.40;3.28;;;;;;;0.45;71.85;147440.31;5155033;27;20030;-64
2023/03/06 07:41:32;;;;;;;4.25;3.08;;;;;;;0.42;71.09;147432.69;5146486;27;20186;-65
2023/03/06 07:43:58;;;;;;;6.22;3.40;;;;;;;0.47;71.47;147444.13;5146929;27;20022;-64
2023/03/06 07:46:23;;;;;;;4.82;2.95;;;;;;;0.33;72.51;147409.84;5151885;27;20070;-64
2023/03/06 07:48:49;;;;;;;3.25;2.75;;;;;;;0.28;72.79;147397.09;5144382;27;20068;-64
2023/03/06 07:51:19;;;;;;;4.60;2.90;;;;;;;0.33;72.52;147409.84;5155135;27;20063;-64
2023/03/06 07:53:46;;;;;;;6.35;3.25;;;;;;;0.56;72.66;147467.06;5128021;27;20259;-64
2023/03/06 07:56:12;;;;;;;6.28;3.55;;;;;;;0.54;72.44;147460.69;5143157;27;20027;-65
2023/03/06 07:58:40;;;;;;;7.30;3.17;;;;;;;0.63;72.82;147484.88;5144739;27;20038;-64
2023/03/06 08:01:09;;;;;;;5.60;2.85;;;;;;;0.69;72.69;147498.84;5145605;27;20091;-65
2023/03/06 08:03:35;;;;;;;3.95;3.25;;;;;;;0.81;72.27;147529.41;5143618;27;20035;-64
2023/03/06 08:06:09;;;;;;;5.07;3.08;;;;;;;0.94;72.43;147561.22;5141888;27;20023;-65
2023/03/06 08:08:36;;;;;;;6.25;3.35;;;;;;;1.12;71.95;147605.72;5151820;27;20311;-65
2023/03/06 08:11:02;;;;;;;7.22;3.38;;;;;;;1.22;72.21;147629.91;5150809;27;20022;-65
2023/03/06 08:13:28;;;;;;;5.63;3.17;;;;;;;1.15;70.41;147613.34;5143187;27;20147;-64
2023/03/06 08:15:53;;;;;;;3.80;3.10;;;;;;;1.29;69.83;147646.47;5156025;27;20289;-64
2023/03/06 08:18:19;;;;;;;4.57;2.90;;;;;;;0.99;70.55;147573.91;5159418;27;20363;-65
2023/03/06 08:20:44;;;;;;;4.53;2.67;;;;;;;0.77;69.62;147517.91;5153498;27;20350;-64
2023/03/06 08:23:10;;;;;;;6.50;3.03;;;;;;;0.66;69.48;147491.22;5152167;27;20019;-64
2023/03/06 08:25:36;;;;;;;5.78;3.10;;;;;;;0.81;70.32;147528.09;5147514;27;20292;-64
2023/03/06 08:28:02;;;;;;;5.10;2.75;;;;;;;0.88;69.45;147544.66;5145925;27;20034;-65
2023/03/06 08:30:28;;;;;;;5.85;2.78;;;;;;;1.05;69.13;147587.91;5145931;27;20051;-66
2023/03/06 08:32:54;;;;;;;5.93;2.97;;;;;;;0.96;68.32;147565.03;5127779;27;20023;-64
2023/03/06 08:35:19;;;;;;;5.35;3.05;;;;;;;0.83;68.36;147534.47;5144439;27;20091;-64
2023/03/06 08:37:45;;;;;;;4.50;2.92;;;;;;;0.85;68.35;147538.28;5147014;27;20019;-65
2023/03/06 08:40:11;;;;;;;3.47;2.72;;;;;;;1.03;67.36;147584.09;5147821;27;20026;-65
2023/03/06 08:42:38;;;;;;;5.60;3.08;;;;;;;1.29;67.51;147647.72;5152862;27;20042;-64
2023/03/06 08:45:05;;;;;;;3.47;2.20;;;;;;;1.11;65.95;147603.19;5159900;27;20232;-65
2023/03/06 08:47:33;;;;;;;3.25;2.50;;;;;;;0.74;66.73;147511.59;5147880;27;20026;-65
2023/03/06 08:49:58;;;;;;;3.65;2.95;;;;;;;0.74;66.69;147511.59;5147411;27;20224;-65
2023/03/06 08:52:24;;;;;;;3.40;2.17;;;;;;;1.02;66.31;147580.28;5158702;27;20022;-65
2023/03/06 08:54:49;;;;;;;3.47;1.95;;;;;;;0.73;66.07;147507.72;5149097;27;20084;-65
2023/03/06 08:57:15;;;;;;;2.50;1.90;;;;;;;0.78;66.63;147520.47;5147220;27;20053;-65
2023/03/06 08:59:41;;;;;;;5.93;2.38;;;;;;;0.78;67.80;147521.72;5146540;27;20031;-65
2023/03/06 09:02:10;;;;;;;5.60;2.50;;;;;;;0.95;68.50;147563.72;5146414;27;20026;-65
2023/03/06 09:04:36;;;;;;;4.10;2.67;;;;;;;0.99;69.14;147573.91;5146257;27;20026;-65
2023/03/06 09:07:02;;;;;;;4.35;2.53;;;;;;;1.02;70.00;147581.53;5146142;27;20034;-65
2023/03/06 09:09:27;;;;;;;3.72;2.67;;;;;;;0.83;69.20;147534.47;5143103;27;20063;-65
2023/03/06 09:11:53;;;;;;;4.90;2.72;;;;;;;1.01;70.66;147577.72;5145544;27;20023;-65
2023/03/06 09:14:19;;;;;;;3.90;2.70;;;;;;;1.10;70.74;147600.66;5146422;27;20023;-64
2023/03/06 09:16:45;;;;;;;4.57;2.83;;;;;;;1.07;69.76;147593.03;5127398;27;20491;-64
2023/03/06 09:19:10;;;;;;;4.22;2.90;;;;;;;0.83;69.70;147533.22;5145320;27;20023;-64
2023/03/06 09:21:36;;;;;;;5.72;3.20;;;;;;;0.71;71.38;147502.66;5144961;27;20027;-65
2023/03/06 09:24:02;;;;;;;5.72;2.90;;;;;;;0.72;71.30;147505.22;5123888;27;20258;-65
2023/03/06 09:26:28;;;;;;;3.25;2.90;;;;;;;0.68;71.32;147497.59;5147081;27;20393;-64
2023/03/06 09:28:53;;;;;;;5.50;3.13;;;;;;;0.77;71.04;147519.22;5146671;27;20030;-64
2023/03/06 09:31:19;;;;;;;7.07;3.30;;;;;;;0.76;69.25;147516.66;5144479;27;20026;-65
2023/03/06 09:33:45;;;;;;;5.35;3.08;;;;;;;0.69;69.90;147498.84;5145244;27;20030;-65
2023/03/06 09:36:20;;;;;;;3.00;2.53;;;;;;;0.81;68.75;147529.41;5145573;27;20064;-65
2023/03/06 09:38:48;;;;;;;4.47;3.05;;;;;;;0.87;67.78;147543.41;5143427;27;20070;-64
2023/03/06 09:41:36;;;;;;;5.85;3.30;;;;;;;0.58;67.71;147470.88;5143019;27;20019;-65
2023/03/06 09:44:12;;;;;;;3.10;2.67;;;;;;;0.64;68.49;147486.13;5132312;27;20298;-63
2023/03/06 09:46:40;;;;;;;3.72;3.00;;;;;;;0.60;67.91;147477.25;5146194;27;20424;-65
2023/03/06 09:49:24;;;;;;;4.38;2.55;;;;;;;0.22;66.24;147383.09;5145894;27;20035;-63
2023/03/06 09:51:57;;;;;;;2.88;2.58;;;;;;;0.54;67.57;147461.94;5156978;27;20107;-64
2023/03/06 09:54:42;;;;;;;4.28;2.63;;;;;;;0.59;67.83;147474.69;5143142;27;20035;-64
2023/03/06 09:57:31;;;;;;;4.13;2.40;;;;;;;0.65;69.14;147488.69;5145509;27;20413;-64
2023/03/06 10:00:01;;;;;;;9.00;2.40;;;;;;;0.71;69.99;147502.66;5122970;27;20312;-64
2023/03/06 10:02:45;;;;;;;3.13;2.05;;;;;;;0.58;71.14;147470.88;5151924;27;20030;-64
2023/03/06 10:05:24;;;;;;;3.28;1.83;;;;;;;0.62;71.52;147481.06;5154205;27;20211;-65
2023/03/06 10:07:53;;;;;;;4.00;2.05;;;;;;;0.41;71.34;147430.16;5130164;27;20027;-65
2023/03/06 10:10:44;;;;;;;6.05;2.08;;;;;;;0.57;72.33;147468.31;5150719;27;20165;-66
2023/03/06 10:13:31;;;;;;;4.18;2.72;;;;;;;0.84;72.24;147537.03;5131220;27;20031;-65
2023/03/06 10:16:18;;;;;;;5.35;2.28;;;;;;;0.64;72.28;147486.13;5157831;27;20030;-65
2023/03/06 10:18:44;;;;;;;6.35;2.60;;;;;;;0.36;73.09;147417.47;5151252;27;20106;-65
2023/03/06 10:21:43;;;;;;;5.70;2.20;;;;;;;0.49;73.09;147450.50;5157954;27;20034;-65
2023/03/06 10:24:20;;;;;;;2.70;2.20;;;;;;;0.63;73.92;147484.88;5142155;27;20118;-65
2023/03/06 10:27:01;;;;;;;2.10;1.90;;;;;;;0.67;72.75;147493.75;5145173;27;20042;-66
2023/03/06 10:29:42;;;;;;;2.83;1.90;;;;;;;0.69;71.67;147498.84;5151177;27;20053;-66
2023/03/06 10:32:29;;;;;;;3.75;1.98;;;;;;;0.64;72.86;147486.13;5143423;27;20038;-65
2023/03/06 10:34:59;;;;;;;3.17;1.95;;;;;;;0.79;71.80;147524.28;5154819;27;20035;-65
2023/03/06 10:37:28;;;;;;;4.75;2.30;;;;;;;0.51;72.51;147454.31;5149635;27;20047;-65
2023/03/06 10:40:03;;;;;;;5.07;2.22;;;;;;;0.81;72.65;147528.09;5158476;27;20031;-67
2023/03/06 10:42:29;;;;;;;4.05;2.22;;;;;;;1.15;71.16;147612.09;5146706;27;20307;-65
2023/03/06 10:45:10;;;;;;;3.88;2.20;;;;;;;0.94;71.90;147559.91;5136368;27;20027;-66
2023/03/06 10:47:37;;;;;;;3.20;2.25;;;;;;;1.07;70.24;147591.72;5141488;27;20038;-66
2023/03/06 10:50:19;;;;;;;3.97;1.90;;;;;;;0.91;70.90;147552.28;5111999;27;20179;-64
2023/03/06 10:52:59;;;;;;;6.05;2.10;;;;;;;1.10;71.64;147600.66;5155463;27;20138;-66
2023/03/06 10:55:30;;;;;;;5.20;2.25;;;;;;;1.24;71.32;147633.72;5139388;27;20023;-65
2023/03/06 10:57:56;;;;;;;5.45;1.98;;;;;;;1.11;70.54;147601.91;5160888;27;20034;-64
2023/03/06 11:00:28;;;;;;;3.42;2.30;;;;;;;1.08;69.46;147594.28;5128296;27;20177;-66
2023/03/06 11:03:16;;;;;;;3.55;2.13;;;;;;;1.03;70.60;147582.84;5143049;27;20030;-64
2023/03/06 11:05:56;;;;;;;6.60;2.05;;;;;;;1.06;71.42;147590.47;5155817;27;20102;-65
2023/03/06 11:08:22;;;;;;;3.00;1.90;;;;;;;1.01;69.48;147577.72;5115997;27;20030;-64
2023/03/06 11:11:00;;;;;;;2.17;1.50;;;;;;;0.83;67.40;147533.22;5156696;27;20065;-65
2023/03/06 11:13:28;;;;;;;2.28;1.65;;;;;;;0.66;69.96;147492.50;5137696;27;20034;-64
2023/03/06 11:16:04;;;;;;;2.25;1.85;;;;;;;0.81;70.96;147528.09;5161574;27;20091;-65
2023/03/06 11:18:38;;;;;;;3.47;2.05;;;;;;;0.49;76.72;147449.25;5152915;27;20100;-67
2023/03/06 11:21:23;;;;;;;5.30;2.58;;;;;;;-0.05;80.62;147316.97;5133793;27;20055;-66
2023/03/06 11:23:50;;;;;;;2.63;1.67;;;;;;;0.08;82.51;147347.50;5148687;27;20046;-65
2023/03/06 11:26:15;;;;;;;2.92;1.42;;;;;;;-0.10;81.62;147303.00;5144121;27;20098;-65
2023/03/06 11:29:08;;;;;;;2.47;1.40;;;;;;;-0.14;81.25;147292.81;5144323;27;20042;-64
2023/03/06 11:31:53;;;;;;;2.53;1.35;;;;;;;-0.20;81.06;147280.13;5137697;27;20068;-65
2023/03/06 11:34:44;;;;;;;3.83;1.38;;;;;;;-0.36;82.73;147239.44;5127360;27;20030;-65